createdAt,value
2022-09-04T00:04:55.618Z,100423.84
2022-09-04T00:10:11.827Z,100421.19
2022-09-04T00:15:36.422Z,100414.69
2022-09-04T00:20:48.223Z,100420.97
2022-09-04T00:26:01.465Z,100432.09
2022-09-04T00:31:17.281Z,100430.47
2022-09-04T00:36:21.416Z,100436.84
2022-09-04T00:41:45.901Z,100438.50
2022-09-04T00:47:48.517Z,100449.75
2022-09-04T00:52:59.365Z,100452.72
2022-09-04T00:58:18.368Z,100453.59
2022-09-04T01:03:34.706Z,100458.06
2022-09-04T01:08:57.653Z,100465.00
2022-09-04T01:14:27.821Z,100473.09
2022-09-04T01:19:48.783Z,100466.91
2022-09-04T01:25:03.109Z,100465.16
2022-09-04T01:30:07.394Z,100470.22
2022-09-04T01:35:25.957Z,100466.94
2022-09-04T01:40:38.942Z,100470.38
2022-09-04T01:46:00.599Z,100470.38
2022-09-04T01:51:11.114Z,100464.16
2022-09-04T01:56:21.791Z,100464.91
2022-09-04T02:01:23.327Z,100477.97
2022-09-04T02:06:54.527Z,100469.59
2022-09-04T02:12:16.111Z,100483.72
2022-09-04T02:17:38.351Z,100488.69
2022-09-04T02:23:19.763Z,100496.69
2022-09-04T02:28:42.787Z,100501.06
2022-09-04T02:34:12.351Z,100493.53
2022-09-04T02:45:21.079Z,100499.22
2022-09-04T02:50:41.114Z,100502.41
2022-09-04T02:55:55.551Z,100501.69
2022-09-04T03:24:17.411Z,100497.97
2022-09-04T03:30:03.197Z,100500.09
2022-09-04T03:35:26.292Z,100502.22
2022-09-04T03:40:36.438Z,100504.66
2022-09-04T03:45:53.174Z,100514.06
2022-09-04T03:51:09.722Z,100512.22
2022-09-04T03:56:37.126Z,100513.31
2022-09-04T04:01:57.014Z,100520.75
2022-09-04T04:07:13.772Z,100519.47
2022-09-04T04:18:33.748Z,100520.63
2022-09-04T04:24:09.386Z,100535.28
2022-09-04T04:29:34.314Z,100532.66
2022-09-04T04:46:44.790Z,100558.09
2022-09-04T04:52:20.506Z,100566.84
2022-09-04T04:58:14.787Z,100562.88
2022-09-04T05:03:44.611Z,100587.97
2022-09-04T05:08:52.238Z,100589.13
2022-09-04T05:14:24.583Z,100588.78
2022-09-04T05:19:47.591Z,100595.88
2022-09-04T05:25:02.867Z,100605.91
2022-09-04T05:30:15.471Z,100616.75
2022-09-04T05:35:35.499Z,100627.25
2022-09-04T05:41:18.972Z,100634.97
2022-09-04T05:46:39.002Z,100650.09
2022-09-04T05:52:11.663Z,100655.03
2022-09-04T05:57:37.411Z,100657.88
2022-09-04T06:03:06.871Z,100654.06
2022-09-04T06:08:36.540Z,100667.91
2022-09-04T06:13:46.975Z,100665.59
2022-09-04T06:19:10.631Z,100674.97
2022-09-04T06:24:57.107Z,100684.75
2022-09-04T06:30:10.539Z,100682.34
2022-09-04T06:35:47.707Z,100680.81
2022-09-04T06:41:08.064Z,100679.53
2022-09-04T06:46:36.967Z,100699.44
2022-09-04T06:51:53.746Z,100693.69
2022-09-04T06:57:20.199Z,100698.72
2022-09-04T07:02:40.555Z,100699.25
2022-09-04T07:07:47.897Z,100698.75
2022-09-04T07:13:50.363Z,100707.09
2022-09-04T07:18:51.789Z,100714.25
2022-09-04T07:24:03.995Z,100716.88
2022-09-04T07:29:17.457Z,100719.94
2022-09-04T07:34:26.832Z,100725.63
2022-09-04T07:39:44.213Z,100730.38
2022-09-04T07:45:01.552Z,100725.78
2022-09-04T07:50:15.806Z,100730.41
2022-09-04T07:55:59.838Z,100732.03
2022-09-04T08:01:07.314Z,100744.25
2022-09-04T08:06:21.857Z,100748.44
2022-09-04T08:12:00.457Z,100748.88
2022-09-04T08:17:40.414Z,100757.41
2022-09-04T08:22:55.463Z,100768.94
2022-09-04T08:28:25.118Z,100765.09
2022-09-04T08:33:40.247Z,100762.09
2022-09-04T08:38:57.791Z,100758.81
2022-09-04T08:44:17.930Z,100754.44
2022-09-04T08:49:37.455Z,100764.72
2022-09-04T08:55:06.010Z,100762.91
2022-09-04T09:00:30.461Z,100760.44
2022-09-04T09:05:43.939Z,100751.53
2022-09-04T09:11:12.443Z,100749.22
2022-09-04T09:16:22.266Z,100748.44
2022-09-04T09:21:43.714Z,100754.09
2022-09-04T09:27:06.597Z,100745.13
2022-09-04T09:32:14.164Z,100755.41
2022-09-04T09:37:51.551Z,100755.44
2022-09-04T09:43:23.513Z,100745.97
2022-09-04T09:49:02.226Z,100746.81
2022-09-04T09:54:49.314Z,100744.09
2022-09-04T10:00:04.218Z,100742.03
2022-09-04T10:05:33.727Z,100740.59
2022-09-04T10:10:54.158Z,100747.84
2022-09-04T10:16:16.760Z,100739.75
2022-09-04T10:21:46.184Z,100742.03
2022-09-04T10:27:15.000Z,100729.16
2022-09-04T10:32:24.551Z,100727.50
2022-09-04T10:37:43.585Z,100730.28
2022-09-04T10:43:06.653Z,100718.72
2022-09-04T10:48:28.770Z,100718.59
2022-09-04T10:53:31.359Z,100719.47
2022-09-04T10:58:54.818Z,100720.84
2022-09-04T11:04:14.299Z,100712.31
2022-09-04T11:09:38.526Z,100712.59
2022-09-04T11:14:49.915Z,100711.91
2022-09-04T11:20:31.827Z,100705.38
2022-09-04T11:25:57.887Z,100699.28
2022-09-04T11:31:21.101Z,100700.75
2022-09-04T11:42:44.928Z,100698.06
2022-09-04T11:48:04.861Z,100699.81
2022-09-04T11:53:15.225Z,100704.16
2022-09-04T11:58:34.586Z,100698.44
2022-09-04T12:10:04.818Z,100691.34
2022-09-04T12:15:24.262Z,100693.88
2022-09-04T12:21:01.777Z,100702.41
2022-09-04T12:26:12.129Z,100695.56
2022-09-04T12:31:35.297Z,100684.59
2022-09-04T12:37:01.342Z,100689.34
2022-09-04T13:16:09.266Z,100716.25
2022-09-04T13:21:15.561Z,100714.25
2022-09-04T13:26:19.648Z,100723.78
2022-09-04T13:31:46.988Z,100713.38
2022-09-04T13:36:54.265Z,100710.50
2022-09-04T13:42:04.877Z,100699.91
2022-09-04T13:47:22.725Z,100709.25
2022-09-04T13:52:45.899Z,100705.53
2022-09-04T13:58:13.926Z,100704.28
2022-09-04T14:03:38.356Z,100696.34
2022-09-04T14:08:40.523Z,100702.81
2022-09-04T14:14:02.059Z,100699.16
2022-09-04T14:19:22.190Z,100697.03
2022-09-04T14:24:34.383Z,100698.66
2022-09-04T14:29:50.474Z,100707.94
2022-09-04T14:35:11.147Z,100707.19
2022-09-04T14:40:30.007Z,100701.38
2022-09-04T14:45:37.550Z,100691.81
2022-09-04T14:50:52.047Z,100699.28
2022-09-04T14:56:07.873Z,100696.41
2022-09-04T15:01:22.894Z,100689.66
2022-09-04T15:06:49.157Z,100689.16
2022-09-04T15:12:25.123Z,100688.88
2022-09-04T15:17:29.767Z,100690.31
2022-09-04T15:22:49.792Z,100692.22
2022-09-04T15:28:00.009Z,100686.84
2022-09-04T15:33:09.220Z,100686.44
2022-09-04T15:38:24.074Z,100690.81
2022-09-04T15:43:34.857Z,100681.44
2022-09-04T15:48:53.914Z,100682.69
2022-09-04T15:54:10.586Z,100688.72
2022-09-04T15:59:30.459Z,100686.22
2022-09-04T16:04:35.005Z,100682.91
2022-09-04T16:09:39.438Z,100688.13
2022-09-04T16:20:52.464Z,100687.69
2022-09-04T16:25:55.481Z,100697.03
2022-09-04T16:31:02.608Z,100697.22
2022-09-04T16:36:11.909Z,100693.63
2022-09-04T16:41:13.347Z,100691.16
2022-09-04T16:46:36.628Z,100692.34
2022-09-04T16:51:45.103Z,100683.41
2022-09-04T16:57:12.420Z,100686.28
2022-09-04T17:02:57.946Z,100676.66
2022-09-04T17:08:08.391Z,100684.03
2022-09-04T17:13:31.978Z,100683.50
2022-09-04T17:18:49.459Z,100677.16
2022-09-04T17:29:02.552Z,100694.06
2022-09-04T17:29:37.234Z,100680.72
2022-09-04T17:40:36.663Z,100683.84
2022-09-04T17:41:38.174Z,100686.75
2022-09-04T17:51:32.729Z,100689.88
2022-09-04T17:56:56.017Z,100693.69
2022-09-04T18:02:11.886Z,100701.25
2022-09-04T18:08:06.576Z,100705.69
2022-09-04T18:12:49.133Z,100715.94
2022-09-04T18:18:08.944Z,100735.38
2022-09-04T18:23:32.133Z,100733.06
2022-09-04T18:28:36.492Z,100744.56
2022-09-04T18:37:16.827Z,100755.13
2022-09-04T18:39:30.130Z,100756.56
2022-09-04T18:50:38.071Z,100761.19
2022-09-04T18:50:45.625Z,100763.69
2022-09-04T18:55:37.172Z,100770.16
2022-09-04T19:01:03.193Z,100778.72
2022-09-04T19:06:11.879Z,100788.78
2022-09-04T19:11:27.266Z,100789.00
2022-09-04T19:16:43.414Z,100799.06
2022-09-04T19:22:06.485Z,100804.00
2022-09-04T19:33:38.318Z,100806.69
2022-09-04T19:45:57.518Z,100807.31
2022-09-04T19:46:12.952Z,100809.81
2022-09-04T19:53:21.234Z,100805.16
2022-09-04T19:55:51.921Z,100806.09
2022-09-04T20:00:59.923Z,100817.63
2022-09-04T20:06:09.337Z,100819.50
2022-09-04T20:11:36.099Z,100817.19
2022-09-04T20:16:48.214Z,100826.38
2022-09-04T20:22:24.373Z,100819.88
2022-09-04T20:27:42.270Z,100823.44
2022-09-04T20:32:55.997Z,100831.00
2022-09-04T20:38:33.663Z,100832.31
2022-09-04T20:43:57.002Z,100837.53
2022-09-04T20:52:57.776Z,100836.00
2022-09-04T20:55:05.194Z,100847.06
2022-09-04T21:03:09.516Z,100851.25
2022-09-04T21:05:41.257Z,100860.13
2022-09-04T21:11:14.853Z,100853.38
2022-09-04T21:16:35.537Z,100865.91
2022-09-04T21:21:58.852Z,100862.06
2022-09-04T21:27:32.566Z,100869.03
2022-09-04T21:32:39.869Z,100865.22
2022-09-04T21:43:39.987Z,100881.22
2022-09-04T21:48:56.754Z,100888.81
2022-09-04T21:55:17.415Z,100893.72
2022-09-04T22:02:35.464Z,100894.00
2022-09-04T22:05:46.468Z,100893.47
2022-09-04T22:13:38.743Z,100892.31
2022-09-04T22:16:33.118Z,100896.13
2022-09-04T22:22:08.911Z,100901.03
2022-09-04T22:27:25.439Z,100897.38
2022-09-04T22:33:10.651Z,100905.00
2022-09-04T22:38:12.199Z,100904.22
2022-09-04T22:43:16.675Z,100911.56
2022-09-04T22:48:39.582Z,100902.28
2022-09-04T22:53:55.821Z,100892.03
2022-09-04T22:59:21.243Z,100905.06
2022-09-04T23:04:30.929Z,100903.91
2022-09-04T23:13:52.745Z,100908.66
2022-09-04T23:15:33.587Z,100905.53
2022-09-04T23:26:31.721Z,100920.28
2022-09-04T23:26:59.678Z,100923.25
2022-09-04T23:32:19.020Z,100930.06
2022-09-04T23:37:40.261Z,100924.69
2022-09-04T23:43:03.752Z,100924.22
2022-09-04T23:48:17.528Z,100923.34
2022-09-04T23:53:28.301Z,100916.19
2022-09-04T23:58:54.770Z,100909.50
